Time;durP1;ratioP1;P1;durP2;ratioP2;P2;SDS_P1;SDS_P2;PMS_P1;PMS_P2;Temp;Humidity;BMP_temperature;BMP_pressure;BME280_temperature;BME280_humidity;BME280_pressure;Samples;Min_cycle;Max_cycle;Signal;HPM_P1;HPM_P2
2022/10/03 00:01:47;;;;;;;18.70;4.80;;;12.20;99.90;;;;;;5033719;28;20493;-46
2022/10/03 00:04:45;;;;;;;16.50;4.30;;;12.20;99.90;;;;;;5033803;28;20431;-47
2022/10/03 00:07:24;;;;;;;21.03;4.03;;;12.00;99.90;;;;;;5033455;28;20430;-46
2022/10/03 00:10:06;;;;;;;13.77;3.67;;;12.10;99.90;;;;;;5032993;28;20477;-47
2022/10/03 00:12:47;;;;;;;17.37;3.73;;;12.30;99.90;;;;;;5033705;28;20444;-47
2022/10/03 00:15:20;;;;;;;17.53;4.30;;;11.80;99.90;;;;;;5033427;28;20785;-48
2022/10/03 00:17:54;;;;;;;10.80;3.80;;;12.20;99.90;;;;;;5033250;28;20985;-48
2022/10/03 00:20:37;;;;;;;22.43;4.77;;;12.10;99.90;;;;;;5032678;28;20453;-47
2022/10/03 00:23:08;;;;;;;21.57;4.20;;;12.20;99.90;;;;;;5033221;28;20453;-48
2022/10/03 00:25:43;;;;;;;23.43;4.30;;;12.30;99.90;;;;;;5033153;28;20448;-48
2022/10/03 00:28:21;;;;;;;14.17;3.80;;;12.00;99.90;;;;;;5032873;28;20465;-47
2022/10/03 00:31:06;;;;;;;15.40;4.10;;;12.10;99.90;;;;;;5015023;28;20481;-47
2022/10/03 00:33:45;;;;;;;19.43;4.07;;;12.20;99.90;;;;;;5032944;28;20426;-47
2022/10/03 00:36:21;;;;;;;29.93;5.60;;;11.70;99.90;;;;;;5033000;28;20910;-47
2022/10/03 00:39:03;;;;;;;13.80;3.50;;;12.30;99.90;;;;;;5032501;28;20452;-47
2022/10/03 00:41:52;;;;;;;15.57;4.40;;;12.40;99.90;;;;;;5032839;28;20746;-47
2022/10/03 00:44:51;;;;;;;22.27;4.87;;;12.30;99.90;;;;;;5032774;28;20460;-47
2022/10/03 00:47:40;;;;;;;14.03;4.37;;;12.20;99.90;;;;;;5032273;28;20482;-47
2022/10/03 00:50:31;;;;;;;18.83;5.30;;;12.50;99.90;;;;;;5032172;28;20558;-47
2022/10/03 00:53:31;;;;;;;14.50;4.13;;;12.30;99.90;;;;;;5032665;28;20435;-46
2022/10/03 00:56:07;;;;;;;21.03;4.73;;;12.20;99.90;;;;;;5032266;28;20935;-46
2022/10/03 00:58:56;;;;;;;13.23;4.10;;;12.20;99.90;;;;;;5031844;28;20468;-46
2022/10/03 01:01:35;;;;;;;17.20;4.27;;;12.10;99.90;;;;;;5014553;28;20449;-47
2022/10/03 01:04:20;;;;;;;11.60;3.20;;;11.80;99.90;;;;;;5032434;28;20772;-47
2022/10/03 01:06:58;;;;;;;12.10;3.37;;;12.20;99.90;;;;;;5032339;28;20437;-46
2022/10/03 01:09:41;;;;;;;17.67;4.03;;;12.10;99.90;;;;;;5031822;28;20495;-46
2022/10/03 01:12:21;;;;;;;15.20;4.17;;;12.40;99.90;;;;;;5032369;28;20427;-46
2022/10/03 01:15:10;;;;;;;19.17;3.87;;;12.00;99.90;;;;;;5032074;28;20437;-46
2022/10/03 01:17:49;;;;;;;17.57;5.67;;;11.90;99.90;;;;;;5031427;28;20769;-46
2022/10/03 01:20:27;;;;;;;12.20;3.00;;;12.10;99.90;;;;;;5031795;28;20440;-46
2022/10/03 01:23:25;;;;;;;16.87;3.27;;;12.00;99.90;;;;;;5031896;28;20815;-46
2022/10/03 01:26:05;;;;;;;11.53;3.23;;;12.20;99.90;;;;;;5031890;28;20442;-46
2022/10/03 01:31:37;;;;;;;12.77;3.70;;;12.40;99.90;;;;;;5031649;28;20569;-47
2022/10/03 01:34:10;;;;;;;17.37;3.80;;;12.10;99.90;;;;;;5031677;28;20439;-47
2022/10/03 01:36:42;;;;;;;14.80;3.63;;;11.90;99.90;;;;;;5032049;28;20807;-48
2022/10/03 01:39:15;;;;;;;18.93;3.83;;;12.40;99.90;;;;;;5031311;28;20457;-47
2022/10/03 01:41:48;;;;;;;11.33;3.30;;;12.20;99.90;;;;;;5031999;28;20449;-47
2022/10/03 01:44:23;;;;;;;16.73;3.80;;;12.10;99.90;;;;;;5031965;28;20437;-48
2022/10/03 01:46:54;;;;;;;13.07;3.63;;;12.70;99.90;;;;;;5013760;28;20954;-47
2022/10/03 01:49:27;;;;;;;16.33;3.60;;;12.70;99.90;;;;;;5031248;28;20461;-47
2022/10/03 01:51:59;;;;;;;19.40;4.17;;;12.50;99.90;;;;;;5031618;28;20427;-47
2022/10/03 01:54:35;;;;;;;15.47;3.83;;;12.90;99.90;;;;;;5031609;28;20823;-47
2022/10/03 01:57:12;;;;;;;12.70;2.90;;;12.50;99.90;;;;;;5031557;28;20430;-47
2022/10/03 01:59:49;;;;;;;9.50;3.27;;;12.50;99.90;;;;;;5031113;28;20456;-47
2022/10/03 02:02:24;;;;;;;16.20;3.43;;;12.80;99.90;;;;;;5031351;28;20437;-48
2022/10/03 02:04:58;;;;;;;11.60;3.33;;;12.90;99.90;;;;;;5031660;28;20442;-47
2022/10/03 02:07:34;;;;;;;17.13;3.23;;;12.40;99.90;;;;;;5031380;28;20503;-47
2022/10/03 02:10:11;;;;;;;11.57;3.87;;;12.60;99.90;;;;;;5031086;28;20469;-47
2022/10/03 02:12:41;;;;;;;14.87;3.47;;;12.00;99.90;;;;;;5031419;28;20434;-47
2022/10/03 02:15:17;;;;;;;16.40;4.13;;;12.40;99.90;;;;;;5031232;28;20863;-47
2022/10/03 02:17:51;;;;;;;9.07;2.90;;;12.50;99.90;;;;;;5031117;28;20448;-48
2022/10/03 02:20:34;;;;;;;12.00;3.40;;;12.50;99.90;;;;;;5031056;28;20859;-47
2022/10/03 02:23:01;;;;;;;13.13;3.40;;;12.80;99.90;;;;;;5031554;28;20430;-47
2022/10/03 02:25:42;;;;;;;17.50;4.00;;;12.70;99.90;;;;;;5031203;28;20438;-47
2022/10/03 02:28:49;;;;;;;13.20;3.50;;;12.60;99.90;;;;;;5013398;28;20488;-47
2022/10/03 02:31:50;;;;;;;15.03;3.37;;;12.70;99.90;;;;;;5034184;28;20475;-47
2022/10/03 02:34:31;;;;;;;17.20;3.60;;;12.80;99.90;;;;;;5035077;28;20434;-46
2022/10/03 02:37:34;;;;;;;11.67;3.13;;;12.70;99.90;;;;;;5035369;28;20451;-47
2022/10/03 02:40:24;;;;;;;12.77;2.80;;;12.90;99.90;;;;;;5034813;28;20958;-46
2022/10/03 02:43:16;;;;;;;17.13;3.70;;;12.70;99.90;;;;;;5034963;28;20794;-47
2022/10/03 02:46:07;;;;;;;15.90;3.60;;;12.90;99.90;;;;;;5035588;28;20909;-47
2022/10/03 02:49:10;;;;;;;10.80;3.17;;;12.70;99.90;;;;;;5034555;28;20473;-47
2022/10/03 02:51:57;;;;;;;9.80;3.50;;;12.70;99.90;;;;;;5034789;28;20481;-47
2022/10/03 02:54:55;;;;;;;14.37;3.63;;;12.30;99.90;;;;;;5034827;28;20451;-47
2022/10/03 02:57:54;;;;;;;14.00;3.60;;;12.70;99.90;;;;;;5035261;28;20803;-48
2022/10/03 03:00:22;;;;;;;13.73;3.20;;;12.70;99.90;;;;;;5034548;28;20439;-47
2022/10/03 03:03:16;;;;;;;10.07;3.27;;;12.70;99.90;;;;;;5035276;28;20433;-47
2022/10/03 03:06:13;;;;;;;9.07;2.90;;;12.40;99.90;;;;;;5035093;28;20425;-46
2022/10/03 03:08:57;;;;;;;12.60;3.53;;;13.00;99.90;;;;;;5034398;28;20452;-46
2022/10/03 03:12:04;;;;;;;10.77;2.47;;;12.20;99.90;;;;;;5034910;28;20455;-46
2022/10/03 03:15:07;;;;;;;17.30;3.67;;;12.70;99.90;;;;;;5017282;28;20448;-46
2022/10/03 03:17:40;;;;;;;12.43;3.10;;;12.70;99.90;;;;;;5034636;28;20445;-46
2022/10/03 03:20:25;;;;;;;13.97;4.33;;;12.80;99.90;;;;;;5034538;28;20421;-46
2022/10/03 03:23:11;;;;;;;13.10;2.90;;;12.90;99.90;;;;;;5034513;28;20433;-46
2022/10/03 03:26:08;;;;;;;10.00;3.10;;;12.90;99.90;;;;;;5016542;28;20450;-47
2022/10/03 03:28:45;;;;;;;6.50;2.83;;;12.90;99.90;;;;;;5033631;28;20479;-46
2022/10/03 03:31:14;;;;;;;19.20;3.67;;;13.00;99.90;;;;;;5034057;28;20563;-48
2022/10/03 03:33:53;;;;;;;29.63;5.13;;;12.60;99.90;;;;;;5034213;28;20437;-47
2022/10/03 03:36:31;;;;;;;11.50;3.40;;;12.90;99.90;;;;;;5016151;28;20537;-48
2022/10/03 03:39:08;;;;;;;10.40;3.47;;;13.00;99.90;;;;;;5033802;28;20450;-47
2022/10/03 03:41:56;;;;;;;16.20;3.50;;;13.10;99.90;;;;;;5033545;28;20450;-46
2022/10/03 03:44:44;;;;;;;14.10;4.23;;;13.10;99.90;;;;;;5034043;28;20437;-47
2022/10/03 03:47:32;;;;;;;12.30;3.40;;;12.80;99.90;;;;;;5033644;28;20922;-46
2022/10/03 03:50:20;;;;;;;15.33;3.50;;;12.80;99.90;;;;;;5033411;28;20444;-47
2022/10/03 03:53:04;;;;;;;14.80;3.30;;;12.80;99.90;;;;;;5033941;28;20434;-46
2022/10/03 03:55:44;;;;;;;10.80;3.50;;;13.10;99.90;;;;;;5033665;28;20438;-47
2022/10/03 03:58:24;;;;;;;23.33;3.43;;;12.80;99.90;;;;;;5033396;28;20451;-46
2022/10/03 04:01:11;;;;;;;9.93;3.23;;;13.10;99.90;;;;;;5033508;28;20488;-47
2022/10/03 04:03:54;;;;;;;10.00;3.60;;;12.80;99.90;;;;;;5033311;28;20431;-47
2022/10/03 04:06:35;;;;;;;9.00;3.30;;;12.80;99.90;;;;;;5033604;28;20940;-46
2022/10/03 04:09:30;;;;;;;14.33;3.93;;;12.20;99.90;;;;;;5033085;28;20493;-45
2022/10/03 04:12:08;;;;;;;23.03;3.33;;;12.80;99.90;;;;;;5033512;28;20786;-46
2022/10/03 04:15:03;;;;;;;15.80;3.87;;;12.90;99.90;;;;;;5033149;28;20426;-46
2022/10/03 04:21:01;;;;;;;18.87;4.03;;;12.90;99.90;;;;;;5032904;28;20450;-48
2022/10/03 04:23:45;;;;;;;13.00;3.23;;;12.80;99.90;;;;;;5033205;28;20441;-46
2022/10/03 04:26:24;;;;;;;17.40;5.00;;;12.60;99.90;;;;;;5033154;28;20980;-47
2022/10/03 04:29:26;;;;;;;9.90;3.27;;;12.70;99.90;;;;;;5015173;28;20671;-48
2022/10/03 04:32:06;;;;;;;17.90;4.00;;;12.90;99.90;;;;;;5033004;28;20486;-48
2022/10/03 04:34:44;;;;;;;14.83;3.63;;;12.20;99.90;;;;;;5032861;28;20440;-48
2022/10/03 04:37:27;;;;;;;12.30;3.60;;;12.80;99.90;;;;;;5032881;28;20441;-48
2022/10/03 04:40:10;;;;;;;7.53;2.90;;;12.70;99.90;;;;;;5032528;28;20438;-48
2022/10/03 04:42:50;;;;;;;19.57;4.00;;;12.80;99.90;;;;;;5032948;28;20434;-47
2022/10/03 04:45:35;;;;;;;15.07;4.50;;;12.30;99.90;;;;;;5015144;28;20821;-47
2022/10/03 04:48:15;;;;;;;18.43;3.00;;;12.50;99.90;;;;;;5032587;28;20548;-47
2022/10/03 04:50:56;;;;;;;15.03;3.60;;;12.90;99.90;;;;;;5032180;28;20476;-47
2022/10/03 04:53:40;;;;;;;10.00;2.70;;;12.90;99.90;;;;;;5031663;28;20462;-47
2022/10/03 04:56:22;;;;;;;16.17;3.90;;;13.00;99.90;;;;;;5032689;28;20476;-47
2022/10/03 04:58:55;;;;;;;9.53;3.37;;;12.80;99.90;;;;;;5032204;28;20573;-47
2022/10/03 05:01:28;;;;;;;10.40;3.70;;;12.70;99.90;;;;;;5032278;28;20789;-47
2022/10/03 05:04:09;;;;;;;10.77;3.30;;;13.00;99.90;;;;;;5032283;28;20438;-46
2022/10/03 05:06:46;;;;;;;10.53;3.47;;;12.80;99.90;;;;;;5032710;28;20451;-47
2022/10/03 05:09:24;;;;;;;13.67;3.30;;;12.80;99.90;;;;;;5031884;28;20457;-47
2022/10/03 05:11:59;;;;;;;14.67;3.70;;;12.90;99.90;;;;;;5032080;28;20482;-47
2022/10/03 05:14:35;;;;;;;8.33;2.70;;;12.30;99.90;;;;;;5032456;28;20879;-47
2022/10/03 05:17:11;;;;;;;15.93;3.50;;;12.90;99.90;;;;;;5032024;28;20433;-47
2022/10/03 05:19:50;;;;;;;10.23;3.00;;;12.80;99.90;;;;;;5032204;28;20828;-47
2022/10/03 05:22:24;;;;;;;18.50;3.80;;;12.30;99.90;;;;;;5032049;28;20462;-47
2022/10/03 05:25:01;;;;;;;12.00;3.13;;;12.60;99.90;;;;;;5032401;28;20533;-47
2022/10/03 05:27:36;;;;;;;19.63;4.43;;;12.70;99.90;;;;;;5031891;28;20436;-49
2022/10/03 05:30:08;;;;;;;21.27;3.73;;;12.80;99.90;;;;;;5031659;28;20435;-47
2022/10/03 05:32:41;;;;;;;11.90;3.23;;;13.00;99.90;;;;;;5031760;28;20476;-47
2022/10/03 05:35:27;;;;;;;9.60;2.87;;;12.80;99.90;;;;;;5031706;28;21161;-47
2022/10/03 05:38:23;;;;;;;12.57;4.17;;;12.90;99.90;;;;;;5032080;28;20971;-47
2022/10/03 05:41:01;;;;;;;19.63;4.00;;;13.20;99.90;;;;;;5031685;28;20429;-47
2022/10/03 05:43:44;;;;;;;15.70;3.90;;;12.80;99.90;;;;;;5031775;28;20781;-48
2022/10/03 05:46:22;;;;;;;17.30;4.07;;;12.90;99.90;;;;;;5031606;28;20479;-47
2022/10/03 05:48:51;;;;;;;22.83;3.67;;;13.00;99.90;;;;;;5031399;28;20462;-47
2022/10/03 05:51:42;;;;;;;15.03;3.53;;;12.40;99.90;;;;;;5031569;28;20480;-47
2022/10/03 05:54:49;;;;;;;12.87;3.17;;;12.80;99.90;;;;;;5031423;28;20470;-48
2022/10/03 05:58:05;;;;;;;14.53;3.63;;;12.80;99.90;;;;;;5031529;28;20445;-47
2022/10/03 06:00:50;;;;;;;12.40;3.30;;;12.80;99.90;;;;;;5031051;28;20437;-48
2022/10/03 06:03:48;;;;;;;11.20;3.10;;;12.90;99.90;;;;;;5031268;28;20431;-48
2022/10/03 06:06:21;;;;;;;18.00;3.90;;;12.40;99.90;;;;;;5031350;28;20445;-48
2022/10/03 06:09:33;;;;;;;15.97;3.43;;;13.00;99.90;;;;;;5030967;28;20445;-48
2022/10/03 06:12:08;;;;;;;15.90;4.73;;;12.80;99.90;;;;;;5031308;28;20482;-47
2022/10/03 06:15:05;;;;;;;13.07;3.37;;;12.80;99.90;;;;;;5031359;28;20441;-46
2022/10/03 06:18:00;;;;;;;12.30;2.90;;;12.90;99.90;;;;;;5028484;28;20828;-47
2022/10/03 06:21:05;;;;;;;10.33;3.17;;;12.80;99.90;;;;;;5030902;28;20448;-46
2022/10/03 06:23:56;;;;;;;14.83;3.40;;;13.00;99.90;;;;;;5028655;28;20454;-47
2022/10/03 06:26:56;;;;;;;12.37;3.00;;;13.20;99.90;;;;;;5031397;28;20496;-47
2022/10/03 06:29:53;;;;;;;9.87;2.63;;;13.30;99.90;;;;;;5031008;28;21077;-47
2022/10/03 06:32:50;;;;;;;18.03;3.73;;;13.10;99.90;;;;;;5031357;28;20568;-47
2022/10/03 06:35:59;;;;;;;16.57;3.07;;;13.20;99.90;;;;;;5031189;28;20934;-47
2022/10/03 06:39:09;;;;;;;6.73;3.00;;;13.30;99.90;;;;;;5031007;28;20455;-47
2022/10/03 06:42:18;;;;;;;11.73;3.00;;;13.30;99.90;;;;;;5031192;28;20782;-48
2022/10/03 06:45:18;;;;;;;9.57;3.00;;;13.20;99.90;;;;;;5013383;28;20457;-47
2022/10/03 06:48:02;;;;;;;11.70;3.20;;;13.20;99.90;;;;;;5005535;28;20827;-47
2022/10/03 06:50:46;;;;;;;14.80;3.20;;;13.40;99.90;;;;;;5030669;28;20437;-46
2022/10/03 06:53:37;;;;;;;12.90;3.57;;;13.30;99.90;;;;;;5030877;28;20436;-46
2022/10/03 06:56:49;;;;;;;10.27;3.13;;;13.30;99.90;;;;;;5030645;28;20429;-46
2022/10/03 06:59:37;;;;;;;16.63;3.10;;;13.30;99.90;;;;;;5030196;28;20461;-47
2022/10/03 07:02:24;;;;;;;10.00;2.77;;;13.40;99.90;;;;;;5031249;28;20430;-46
2022/10/03 07:05:43;;;;;;;12.33;3.20;;;13.50;99.90;;;;;;5031397;28;20439;-46
2022/10/03 07:08:58;;;;;;;11.70;3.00;;;13.50;99.90;;;;;;5030802;28;20458;-46
2022/10/03 07:11:50;;;;;;;12.10;3.23;;;13.30;99.90;;;;;;5013478;28;20505;-47
2022/10/03 07:14:56;;;;;;;10.33;3.13;;;13.60;99.90;;;;;;5030599;28;20448;-46
2022/10/03 07:17:37;;;;;;;17.57;3.30;;;13.40;99.90;;;;;;5033401;28;20442;-46
2022/10/03 07:20:26;;;;;;;13.30;4.17;;;13.80;99.90;;;;;;5033835;28;20518;-47
2022/10/03 07:23:27;;;;;;;18.27;3.97;;;13.70;99.90;;;;;;5016347;28;20861;-46
2022/10/03 07:26:29;;;;;;;13.73;3.23;;;14.00;99.90;;;;;;5034308;28;20432;-47
2022/10/03 07:29:18;;;;;;;15.63;3.50;;;13.80;99.90;;;;;;5008420;28;20493;-46
2022/10/03 07:31:59;;;;;;;13.20;3.90;;;13.70;99.90;;;;;;5033687;28;20470;-47
2022/10/03 07:35:05;;;;;;;14.40;3.37;;;14.00;99.90;;;;;;5033826;28;20436;-47
2022/10/03 07:41:14;;;;;;;12.23;2.80;;;13.60;99.90;;;;;;5033639;28;20469;-49
2022/10/03 07:44:10;;;;;;;16.47;3.97;;;13.80;99.90;;;;;;5033995;28;20439;-47
2022/10/03 07:47:29;;;;;;;11.87;3.37;;;14.10;99.90;;;;;;5033822;28;20427;-47
2022/10/03 07:50:16;;;;;;;14.83;3.40;;;14.00;99.90;;;;;;5033662;28;20439;-46
2022/10/03 07:53:01;;;;;;;17.23;3.70;;;14.00;99.90;;;;;;5033677;28;20520;-46
2022/10/03 07:55:39;;;;;;;9.30;2.70;;;14.30;99.90;;;;;;5033611;28;20438;-46
2022/10/03 07:58:44;;;;;;;9.20;3.10;;;13.80;99.90;;;;;;5033707;28;20469;-46
2022/10/03 08:01:44;;;;;;;9.17;2.60;;;14.00;99.90;;;;;;5033879;28;20453;-46
2022/10/03 08:04:38;;;;;;;10.93;5.33;;;14.10;99.90;;;;;;5015896;28;20447;-46
2022/10/03 08:07:24;;;;;;;11.83;2.60;;;14.10;99.90;;;;;;5033610;28;20531;-46
2022/10/03 08:10:07;;;;;;;9.80;2.60;;;14.00;99.90;;;;;;5033271;28;20447;-47
2022/10/03 08:13:01;;;;;;;13.40;3.17;;;13.50;99.90;;;;;;5033201;28;20482;-47
2022/10/03 08:15:38;;;;;;;17.37;4.40;;;14.10;99.90;;;;;;5033444;28;20435;-47
2022/10/03 08:18:32;;;;;;;15.93;4.00;;;14.20;99.90;;;;;;5033303;28;20462;-48
2022/10/03 08:21:01;;;;;;;23.23;4.63;;;14.20;99.90;;;;;;5033382;28;20450;-47
2022/10/03 08:23:54;;;;;;;13.70;2.93;;;14.20;99.90;;;;;;5015661;28;20555;-48
2022/10/03 08:26:32;;;;;;;10.00;3.23;;;14.40;99.90;;;;;;5033364;28;20739;-46
2022/10/03 08:29:13;;;;;;;14.30;3.00;;;14.40;99.90;;;;;;5033393;28;20473;-46
2022/10/03 08:32:33;;;;;;;14.70;4.40;;;14.40;99.90;;;;;;5034199;28;20810;-46
2022/10/03 08:35:21;;;;;;;9.43;3.37;;;14.50;99.90;;;;;;5034418;28;20467;-46
2022/10/03 08:38:46;;;;;;;17.53;3.90;;;14.70;99.90;;;;;;5015914;28;20467;-46
2022/10/03 08:41:54;;;;;;;16.07;2.90;;;14.50;99.90;;;;;;5034128;28;20889;-47
2022/10/03 08:45:04;;;;;;;11.07;3.27;;;14.50;99.90;;;;;;5033095;28;20434;-46
2022/10/03 08:48:09;;;;;;;12.20;2.53;;;14.60;99.90;;;;;;5033100;28;20446;-47
2022/10/03 08:50:59;;;;;;;14.03;5.23;;;14.50;99.90;;;;;;5003037;28;20495;-47
2022/10/03 08:53:55;;;;;;;14.00;3.10;;;14.70;99.90;;;;;;5032923;28;20483;-47
2022/10/03 08:56:27;;;;;;;10.20;3.27;;;14.60;99.90;;;;;;5032808;28;20804;-46
2022/10/03 08:59:30;;;;;;;15.90;4.13;;;14.60;99.90;;;;;;5032161;28;20998;-48
2022/10/03 09:02:53;;;;;;;11.17;3.27;;;14.50;99.90;;;;;;5028087;28;20512;-46
2022/10/03 09:05:48;;;;;;;9.83;2.90;;;14.80;99.90;;;;;;5032412;28;20522;-48
2022/10/03 09:08:55;;;;;;;8.40;3.10;;;14.90;99.90;;;;;;5031998;28;20430;-47
2022/10/03 09:11:55;;;;;;;9.33;2.70;;;15.00;99.90;;;;;;5004708;28;21053;-46
2022/10/03 09:14:45;;;;;;;10.60;3.47;;;14.80;99.90;;;;;;5032279;28;20455;-48
2022/10/03 09:17:40;;;;;;;12.23;3.60;;;15.20;99.90;;;;;;5032176;28;20432;-46
2022/10/03 09:20:48;;;;;;;13.27;3.80;;;15.30;99.90;;;;;;5031700;28;20435;-46
2022/10/03 09:23:48;;;;;;;9.83;3.47;;;15.30;99.90;;;;;;5031958;28;20431;-47
2022/10/03 09:26:43;;;;;;;10.20;3.37;;;15.50;99.90;;;;;;4990981;28;20444;-47
2022/10/03 09:29:39;;;;;;;10.70;3.50;;;15.50;99.90;;;;;;5031551;28;20829;-48
2022/10/03 09:32:38;;;;;;;12.27;3.20;;;15.20;99.90;;;;;;5031740;28;20849;-46
2022/10/03 09:35:28;;;;;;;11.33;2.83;;;15.30;99.90;;;;;;5031737;28;20892;-47
2022/10/03 09:38:25;;;;;;;11.30;3.20;;;15.50;99.90;;;;;;5022829;28;20474;-47
2022/10/03 09:41:40;;;;;;;11.93;2.83;;;15.40;99.90;;;;;;5031681;28;20440;-46
2022/10/03 09:44:24;;;;;;;13.00;3.40;;;15.30;99.90;;;;;;4975836;28;20539;-48
2022/10/03 09:47:22;;;;;;;10.33;3.03;;;15.40;99.90;;;;;;5031650;28;20471;-47
2022/10/03 09:50:45;;;;;;;12.73;3.70;;;15.40;99.90;;;;;;5031392;28;20436;-47
2022/10/03 09:53:42;;;;;;;19.23;4.23;;;15.40;99.90;;;;;;5031995;28;21059;-46
2022/10/03 09:56:35;;;;;;;7.47;2.97;;;15.60;99.90;;;;;;5032550;28;20442;-49
2022/10/03 09:59:20;;;;;;;14.97;2.87;;;15.60;99.90;;;;;;5032133;28;20462;-47
2022/10/03 10:01:53;;;;;;;9.53;2.97;;;15.70;99.90;;;;;;5032103;28;20436;-48
2022/10/03 10:04:48;;;;;;;8.10;3.03;;;15.30;99.90;;;;;;5032188;28;20916;-48
2022/10/03 10:07:54;;;;;;;8.83;2.90;;;15.80;99.90;;;;;;5032014;28;20435;-46
2022/10/03 10:10:51;;;;;;;14.93;3.10;;;15.80;99.90;;;;;;5030786;28;20452;-47
2022/10/03 10:13:42;;;;;;;8.80;2.80;;;15.70;99.90;;;;;;5030962;28;20483;-47
2022/10/03 10:16:31;;;;;;;12.83;3.00;;;15.70;99.90;;;;;;5031133;28;20471;-47
2022/10/03 10:19:22;;;;;;;10.93;2.70;;;15.70;99.90;;;;;;5030833;28;20540;-47
2022/10/03 10:22:16;;;;;;;21.63;4.10;;;16.10;99.90;;;;;;5031055;28;20515;-48
2022/10/03 10:25:19;;;;;;;11.93;2.67;;;16.10;99.90;;;;;;5030848;28;20449;-46
2022/10/03 10:28:13;;;;;;;11.40;3.50;;;15.80;99.90;;;;;;5021101;28;20479;-48
2022/10/03 10:31:13;;;;;;;7.33;3.10;;;16.00;99.90;;;;;;5030635;28;20996;-48
2022/10/03 10:34:25;;;;;;;9.70;3.50;;;16.00;99.90;;;;;;4988820;28;20599;-48
2022/10/03 10:37:28;;;;;;;12.40;3.50;;;16.00;99.90;;;;;;5031078;28;20539;-48
2022/10/03 10:40:41;;;;;;;11.80;3.53;;;16.10;99.90;;;;;;5030712;28;20814;-48
2022/10/03 10:43:40;;;;;;;12.97;3.20;;;16.20;99.90;;;;;;5030646;28;20427;-49
2022/10/03 10:46:31;;;;;;;8.10;3.33;;;16.00;99.90;;;;;;5030987;28;20436;-49
2022/10/03 10:49:38;;;;;;;12.03;3.10;;;16.00;99.90;;;;;;5030532;28;21045;-48
2022/10/03 10:52:43;;;;;;;12.60;4.53;;;16.20;99.90;;;;;;5033150;28;20466;-47
2022/10/03 10:55:45;;;;;;;13.03;2.57;;;16.20;99.90;;;;;;5034928;28;20439;-48
2022/10/03 10:59:05;;;;;;;9.23;2.70;;;15.80;99.90;;;;;;5011687;28;20463;-48
2022/10/03 11:02:02;;;;;;;10.87;2.50;;;15.90;99.90;;;;;;5034276;28;20436;-49
2022/10/03 11:05:20;;;;;;;10.00;3.87;;;15.90;99.90;;;;;;5034623;28;20450;-49
2022/10/03 11:08:38;;;;;;;8.60;3.77;;;15.90;99.90;;;;;;5034475;28;20461;-49
2022/10/03 11:11:34;;;;;;;7.00;3.17;;;16.00;99.90;;;;;;5022491;28;20451;-49
2022/10/03 11:14:37;;;;;;;12.57;3.30;;;16.00;99.90;;;;;;5034102;28;20483;-48
2022/10/03 11:17:44;;;;;;;8.77;2.30;;;16.20;99.90;;;;;;5033440;28;20450;-49
2022/10/03 11:21:15;;;;;;;9.50;3.43;;;16.10;99.90;;;;;;4998008;28;20456;-49
2022/10/03 11:24:22;;;;;;;9.93;2.60;;;16.40;99.90;;;;;;5034050;28;20450;-49
2022/10/03 11:27:27;;;;;;;9.77;2.67;;;16.50;99.90;;;;;;5033620;28;20431;-49
2022/10/03 11:30:21;;;;;;;7.17;2.30;;;16.60;99.90;;;;;;5033325;28;20444;-49
2022/10/03 11:33:34;;;;;;;7.90;2.30;;;16.60;99.90;;;;;;5033847;28;20468;-49
2022/10/03 11:36:48;;;;;;;15.43;3.63;;;16.60;99.90;;;;;;5033897;28;20945;-49
2022/10/03 11:39:23;;;;;;;11.77;2.50;;;16.50;99.90;;;;;;4972284;28;20465;-48
2022/10/03 11:41:58;;;;;;;9.47;3.40;;;16.50;99.90;;;;;;5029448;28;20478;-49
2022/10/03 11:44:30;;;;;;;12.07;3.53;;;16.50;99.90;;;;;;5015684;28;20440;-50
2022/10/03 11:47:29;;;;;;;9.43;3.40;;;16.60;99.90;;;;;;5033481;28;20456;-49
2022/10/03 11:50:31;;;;;;;11.27;3.40;;;16.60;99.90;;;;;;5033135;28;20437;-50
2022/10/03 11:53:22;;;;;;;8.13;2.40;;;16.40;99.90;;;;;;5033435;28;20494;-49
2022/10/03 11:55:57;;;;;;;13.03;2.33;;;16.40;99.90;;;;;;5033553;28;20999;-49
2022/10/03 11:58:33;;;;;;;9.77;2.93;;;16.40;99.90;;;;;;5032779;28;20467;-48
2022/10/03 12:01:17;;;;;;;6.90;2.43;;;16.30;99.90;;;;;;5033271;28;20436;-49
2022/10/03 12:03:53;;;;;;;10.73;3.30;;;16.40;99.90;;;;;;5033209;28;20423;-48
2022/10/03 12:09:24;;;;;;;9.03;3.57;;;16.50;99.90;;;;;;5032755;28;20417;-50
2022/10/03 12:11:58;;;;;;;9.43;2.50;;;16.40;99.90;;;;;;5033084;28;20516;-48
2022/10/03 12:14:28;;;;;;;8.63;3.03;;;16.50;99.90;;;;;;5032943;28;20481;-49
2022/10/03 12:17:05;;;;;;;11.33;3.07;;;16.50;99.90;;;;;;5033171;28;20531;-49
2022/10/03 12:19:37;;;;;;;11.63;5.00;;;16.50;99.90;;;;;;5032489;28;20860;-49
2022/10/03 12:22:22;;;;;;;10.70;3.10;;;16.40;99.90;;;;;;5014898;28;20450;-49
2022/10/03 12:24:50;;;;;;;13.00;2.90;;;16.30;99.90;;;;;;5032744;28;20457;-49
2022/10/03 12:27:25;;;;;;;7.53;2.53;;;16.40;99.90;;;;;;5032656;28;20435;-48
2022/10/03 12:29:58;;;;;;;8.60;2.77;;;16.50;99.90;;;;;;5032753;28;20516;-48
2022/10/03 12:32:32;;;;;;;8.57;2.77;;;16.40;99.90;;;;;;5032564;28;20531;-48
2022/10/03 12:35:14;;;;;;;8.20;2.00;;;16.50;99.90;;;;;;5032627;28;20432;-48
2022/10/03 12:37:59;;;;;;;15.53;2.70;;;16.50;99.90;;;;;;5032670;28;20467;-49
2022/10/03 12:40:33;;;;;;;9.70;2.57;;;16.40;99.90;;;;;;5032286;28;20436;-49
2022/10/03 12:43:09;;;;;;;5.83;2.30;;;16.10;99.90;;;;;;5032576;28;20758;-48
2022/10/03 12:45:42;;;;;;;9.00;3.47;;;16.50;99.90;;;;;;5032090;28;20957;-50
2022/10/03 12:48:27;;;;;;;13.23;3.70;;;16.10;99.90;;;;;;5032316;28;20461;-50
2022/10/03 12:50:58;;;;;;;9.17;3.90;;;16.60;99.90;;;;;;5032370;28;20805;-49
2022/10/03 12:53:37;;;;;;;7.03;2.30;;;17.20;99.90;;;;;;5032098;28;21029;-48
2022/10/03 12:56:13;;;;;;;11.57;2.20;;;16.60;99.90;;;;;;5032199;28;20436;-48
2022/10/03 12:58:52;;;;;;;8.17;3.10;;;16.60;99.90;;;;;;5031958;28;20987;-48
2022/10/03 13:01:28;;;;;;;6.57;2.83;;;16.60;99.90;;;;;;5032232;28;20428;-48
2022/10/03 13:03:57;;;;;;;10.03;4.20;;;16.50;99.90;;;;;;5031683;28;20481;-50
2022/10/03 13:06:36;;;;;;;9.97;3.40;;;17.00;99.90;;;;;;5032075;28;20511;-49
2022/10/03 13:09:20;;;;;;;11.20;3.20;;;16.70;99.90;;;;;;5030468;28;20980;-48
2022/10/03 13:12:02;;;;;;;7.70;2.77;;;16.80;99.90;;;;;;5031801;28;20809;-49
2022/10/03 13:14:45;;;;;;;13.17;3.13;;;16.90;99.90;;;;;;5030968;28;20489;-48
2022/10/03 13:17:22;;;;;;;5.67;2.87;;;17.10;99.90;;;;;;5031770;28;20900;-49
2022/10/03 13:19:58;;;;;;;8.33;2.43;;;17.50;99.90;;;;;;5031281;28;20441;-49
2022/10/03 13:22:35;;;;;;;7.77;2.70;;;17.40;99.90;;;;;;5031525;28;20438;-48
2022/10/03 13:25:07;;;;;;;9.17;2.80;;;17.40;99.90;;;;;;5031870;28;20923;-49
2022/10/03 13:27:43;;;;;;;9.07;3.27;;;17.70;99.90;;;;;;5031618;28;20442;-49
2022/10/03 13:30:21;;;;;;;15.90;5.70;;;17.60;99.90;;;;;;5031371;28;20946;-49
2022/10/03 13:32:54;;;;;;;7.43;2.47;;;17.40;99.90;;;;;;5031342;28;20819;-48
2022/10/03 13:38:35;;;;;;;8.20;2.90;;;17.40;99.90;;;;;;5031226;28;20443;-49
2022/10/03 13:41:14;;;;;;;6.47;2.70;;;17.40;99.90;;;;;;5031696;28;20504;-49
2022/10/03 13:43:49;;;;;;;8.80;2.60;;;17.40;99.90;;;;;;5032008;28;20783;-49
2022/10/03 13:46:21;;;;;;;9.23;3.10;;;17.60;99.90;;;;;;5031276;28;20448;-50
2022/10/03 13:48:56;;;;;;;8.60;2.97;;;17.80;99.90;;;;;;5031259;28;20458;-49
2022/10/03 13:51:33;;;;;;;7.90;2.50;;;17.50;99.90;;;;;;5031553;28;20434;-48
2022/10/03 13:54:06;;;;;;;13.07;3.23;;;17.40;99.90;;;;;;5031836;28;20490;-49
2022/10/03 13:56:45;;;;;;;6.77;2.70;;;17.50;99.90;;;;;;5032083;28;20470;-49
2022/10/03 13:59:35;;;;;;;8.20;3.73;;;17.40;99.90;;;;;;5031755;28;20466;-49
2022/10/03 14:02:16;;;;;;;10.17;2.57;;;17.50;99.90;;;;;;5031624;28;20442;-48
2022/10/03 14:05:07;;;;;;;9.97;3.17;;;17.20;99.90;;;;;;5031807;28;20436;-48
2022/10/03 14:07:44;;;;;;;7.47;2.80;;;17.50;99.90;;;;;;5031630;28;20439;-49
2022/10/03 14:10:48;;;;;;;5.00;3.00;;;17.30;99.90;;;;;;5013857;28;20507;-49
2022/10/03 14:13:23;;;;;;;5.93;2.17;;;17.20;99.90;;;;;;5031158;28;20531;-49
2022/10/03 14:15:58;;;;;;;7.00;2.20;;;17.00;99.90;;;;;;5031333;28;20446;-48
2022/10/03 14:18:43;;;;;;;8.10;2.90;;;17.20;99.90;;;;;;5030788;28;20454;-49
2022/10/03 14:21:41;;;;;;;5.93;2.33;;;17.20;99.90;;;;;;5031655;28;20507;-49
2022/10/03 14:24:23;;;;;;;15.23;3.10;;;17.00;99.90;;;;;;5031155;28;20448;-48
2022/10/03 14:26:57;;;;;;;7.67;2.13;;;16.80;99.90;;;;;;5034654;28;20943;-49
2022/10/03 14:29:31;;;;;;;5.83;2.40;;;16.80;99.90;;;;;;5034538;28;20485;-49
2022/10/03 14:32:07;;;;;;;10.30;3.90;;;16.60;99.90;;;;;;5035080;28;20435;-49
2022/10/03 14:34:46;;;;;;;6.80;3.30;;;16.70;99.90;;;;;;5034925;28;20476;-50
2022/10/03 14:37:23;;;;;;;15.53;4.13;;;16.60;99.90;;;;;;5034871;28;20962;-48
2022/10/03 14:40:05;;;;;;;5.87;3.17;;;16.50;99.90;;;;;;5034445;28;20438;-50